Time;durP1;ratioP1;P1;durP2;ratioP2;P2;SDS_P1;SDS_P2;PMS_P1;PMS_P2;Temp;Humidity;BMP_temperature;BMP_pressure;BME280_temperature;BME280_humidity;BME280_pressure;Samples;Min_cycle;Max_cycle;Signal;HPM_P1;HPM_P2
2021/03/15 00:02:15;;;;;;;14.30;8.87;;;7.90;86.80;;;;;;8375903;28;20286;-74
2021/03/15 00:06:21;;;;;;;20.63;10.30;;;7.80;86.80;;;;;;8378568;28;20301;-73
2021/03/15 00:10:22;;;;;;;22.47;9.53;;;7.80;87.00;;;;;;8357597;28;20849;-73
2021/03/15 00:14:26;;;;;;;13.93;8.77;;;7.80;87.00;;;;;;8371116;28;20827;-73
2021/03/15 00:18:31;;;;;;;15.27;8.63;;;7.80;87.00;;;;;;8375967;28;20475;-73
2021/03/15 00:22:31;;;;;;;17.03;8.77;;;7.80;87.10;;;;;;8374311;28;20813;-73
2021/03/15 00:26:33;;;;;;;16.17;9.60;;;7.80;87.00;;;;;;8349288;28;21097;-73
2021/03/15 00:30:33;;;;;;;12.60;8.37;;;7.90;86.90;;;;;;8368819;28;20187;-74
2021/03/15 00:34:34;;;;;;;16.93;8.23;;;7.90;86.80;;;;;;8375676;28;20453;-73
2021/03/15 00:38:39;;;;;;;23.10;9.10;;;7.90;86.60;;;;;;8374551;28;20191;-73
2021/03/15 00:42:45;;;;;;;18.17;8.67;;;8.00;86.90;;;;;;8373791;28;20871;-73
2021/03/15 00:46:49;;;;;;;14.27;7.20;;;8.00;86.60;;;;;;8393871;28;20463;-73
2021/03/15 00:50:50;;;;;;;13.20;6.57;;;8.00;86.50;;;;;;8362963;28;20441;-73
2021/03/15 00:54:54;;;;;;;30.27;7.97;;;8.10;86.60;;;;;;8390314;28;20252;-73
2021/03/15 00:59:01;;;;;;;19.30;7.20;;;8.10;86.50;;;;;;8371136;28;20525;-73
2021/03/15 01:03:02;;;;;;;18.20;7.17;;;8.10;86.50;;;;;;8352055;28;20207;-73
2021/03/15 01:07:05;;;;;;;10.33;5.70;;;8.10;86.40;;;;;;8375635;28;20534;-73
2021/03/15 01:11:06;;;;;;;11.57;6.33;;;8.10;87.10;;;;;;8369203;28;20482;-73
2021/03/15 01:15:09;;;;;;;7.83;6.43;;;8.10;86.20;;;;;;8341170;28;20442;-73
2021/03/15 01:19:13;;;;;;;17.97;8.20;;;8.10;86.20;;;;;;8375067;28;20191;-72
2021/03/15 01:23:14;;;;;;;17.17;8.30;;;8.00;86.70;;;;;;8372702;28;20445;-73
2021/03/15 01:27:19;;;;;;;13.87;7.80;;;7.90;87.20;;;;;;8335564;28;20472;-73
2021/03/15 01:31:30;;;;;;;13.07;7.67;;;7.90;87.70;;;;;;8373492;28;20471;-73
2021/03/15 01:35:31;;;;;;;19.53;9.50;;;7.80;87.80;;;;;;8389533;28;20444;-73
2021/03/15 01:39:35;;;;;;;20.43;8.57;;;7.80;88.00;;;;;;8389617;28;20441;-72
2021/03/15 01:43:43;;;;;;;9.60;6.97;;;7.80;88.20;;;;;;8398953;28;20444;-74
2021/03/15 01:47:51;;;;;;;10.33;9.10;;;7.80;88.30;;;;;;8402501;28;20710;-73
2021/03/15 01:51:53;;;;;;;8.57;7.30;;;7.70;88.60;;;;;;8375313;28;20445;-74
2021/03/15 01:56:04;;;;;;;14.60;9.13;;;7.70;88.90;;;;;;8353461;28;20934;-73
2021/03/15 02:00:23;;;;;;;16.20;9.17;;;7.70;89.30;;;;;;8357526;28;20467;-73
2021/03/15 02:04:27;;;;;;;16.33;8.47;;;7.70;90.00;;;;;;8375126;28;20567;-75
2021/03/15 02:08:27;;;;;;;10.83;6.57;;;7.70;90.40;;;;;;8355369;28;20992;-74
2021/03/15 02:13:08;;;;;;;11.53;6.60;;;7.70;90.50;;;;;;8359993;28;21009;-75
2021/03/15 02:17:19;;;;;;;10.33;5.87;;;7.70;90.50;;;;;;8373829;28;20197;-75
2021/03/15 02:21:44;;;;;;;13.07;4.93;;;7.60;90.80;;;;;;8380472;28;20444;-74
2021/03/15 02:26:15;;;;;;;5.80;4.60;;;7.60;90.90;;;;;;8373448;28;20479;-74
2021/03/15 02:30:19;;;;;;;10.00;4.00;;;7.60;90.90;;;;;;8381028;28;20465;-74
2021/03/15 02:34:57;;;;;;;6.27;3.83;;;7.60;91.20;;;;;;8371929;28;20450;-74
2021/03/15 02:38:59;;;;;;;8.60;4.77;;;7.60;91.20;;;;;;8349205;28;20441;-75
2021/03/15 02:43:04;;;;;;;6.93;3.17;;;7.60;91.30;;;;;;8374356;28;20966;-75
2021/03/15 02:47:12;;;;;;;4.20;2.70;;;7.60;91.30;;;;;;8368023;28;20496;-75
2021/03/15 02:51:17;;;;;;;4.73;2.70;;;7.60;91.60;;;;;;8371552;28;20441;-75
2021/03/15 02:55:22;;;;;;;2.07;1.97;;;7.60;91.50;;;;;;8376971;28;20441;-75
2021/03/15 02:59:32;;;;;;;4.40;2.50;;;7.60;91.40;;;;;;8410266;28;20464;-75
2021/03/15 03:03:41;;;;;;;2.30;2.00;;;7.50;91.50;;;;;;8394618;28;20452;-75
2021/03/15 03:07:46;;;;;;;6.00;2.30;;;7.50;91.70;;;;;;8375016;28;20461;-76
2021/03/15 03:11:48;;;;;;;2.83;1.33;;;7.40;91.70;;;;;;8386162;28;20435;-76
2021/03/15 03:15:50;;;;;;;4.13;1.47;;;7.40;91.80;;;;;;8370001;28;20437;-75
2021/03/15 03:19:52;;;;;;;1.20;0.97;;;7.40;91.70;;;;;;8384438;28;20440;-76
2021/03/15 03:23:58;;;;;;;2.03;1.00;;;7.40;91.60;;;;;;8374136;28;20833;-76
2021/03/15 03:28:04;;;;;;;3.73;1.00;;;7.40;91.60;;;;;;8397287;28;20519;-75
2021/03/15 03:32:10;;;;;;;1.00;0.90;;;7.40;91.70;;;;;;8375785;28;20448;-76
2021/03/15 03:36:11;;;;;;;0.90;0.90;;;7.30;91.70;;;;;;8405194;28;20541;-76
2021/03/15 03:40:15;;;;;;;0.70;0.70;;;7.30;91.50;;;;;;8379389;28;20437;-76
2021/03/15 03:44:17;;;;;;;1.07;0.80;;;7.30;90.90;;;;;;8377070;28;20471;-76
2021/03/15 03:48:18;;;;;;;1.30;1.20;;;7.30;91.20;;;;;;8375550;28;20452;-76
2021/03/15 03:52:23;;;;;;;2.00;0.87;;;7.20;91.40;;;;;;8373331;28;20540;-76
2021/03/15 03:56:29;;;;;;;0.73;0.70;;;7.20;91.60;;;;;;8372491;28;20198;-75
2021/03/15 04:00:33;;;;;;;0.70;0.70;;;7.20;91.70;;;;;;8378278;28;20968;-74
2021/03/15 04:04:43;;;;;;;0.67;0.67;;;7.20;91.70;;;;;;8380563;28;20978;-76
2021/03/15 04:08:54;;;;;;;0.60;0.60;;;7.10;91.90;;;;;;8359806;28;20466;-75
2021/03/15 04:13:07;;;;;;;0.67;0.67;;;7.10;91.90;;;;;;8377692;28;20445;-75
2021/03/15 04:17:11;;;;;;;1.23;1.13;;;7.10;91.90;;;;;;8381479;28;20450;-75
2021/03/15 04:21:14;;;;;;;0.60;0.60;;;7.10;92.00;;;;;;8365040;28;20472;-75
2021/03/15 04:25:16;;;;;;;0.50;0.50;;;7.00;92.00;;;;;;8377086;28;20465;-75
2021/03/15 04:29:18;;;;;;;0.70;0.70;;;7.00;92.10;;;;;;8374320;28;20890;-75
2021/03/15 04:33:23;;;;;;;0.80;0.80;;;7.00;92.10;;;;;;8365431;28;21002;-75
2021/03/15 04:37:35;;;;;;;1.30;1.30;;;7.10;92.10;;;;;;8367670;28;21034;-75
2021/03/15 04:41:36;;;;;;;3.03;1.57;;;7.20;92.30;;;;;;8370193;28;20922;-75
2021/03/15 04:45:45;;;;;;;1.23;1.13;;;7.30;92.40;;;;;;8371257;28;21228;-75
2021/03/15 04:49:48;;;;;;;1.27;1.17;;;7.30;92.50;;;;;;8371933;28;20448;-75
2021/03/15 04:53:51;;;;;;;1.00;1.00;;;7.40;92.40;;;;;;8369174;28;20437;-74
2021/03/15 04:57:55;;;;;;;2.20;1.77;;;7.40;92.40;;;;;;8367498;28;20433;-75
2021/03/15 05:01:57;;;;;;;3.60;1.77;;;7.40;92.50;;;;;;8374417;28;21069;-75
2021/03/15 05:06:02;;;;;;;4.70;2.53;;;7.40;92.60;;;;;;8363626;28;20472;-76
2021/03/15 05:10:04;;;;;;;5.10;3.23;;;7.40;92.80;;;;;;8377136;28;20514;-75
2021/03/15 05:14:05;;;;;;;5.50;3.87;;;7.40;92.90;;;;;;8386763;28;20440;-76
2021/03/15 05:18:12;;;;;;;3.10;2.50;;;7.40;93.00;;;;;;8374622;28;20899;-75
2021/03/15 05:22:16;;;;;;;7.23;4.13;;;7.50;93.00;;;;;;8376141;28;20934;-75
2021/03/15 05:26:20;;;;;;;10.13;5.37;;;7.50;93.10;;;;;;8390327;28;20472;-76
2021/03/15 05:30:22;;;;;;;18.93;6.83;;;7.50;93.20;;;;;;8376373;28;20830;-75
2021/03/15 05:34:24;;;;;;;22.97;9.87;;;7.60;93.40;;;;;;8362139;28;20480;-76
2021/03/15 05:38:25;;;;;;;23.67;11.17;;;7.60;93.50;;;;;;8366153;28;20441;-76
2021/03/15 05:42:44;;;;;;;28.90;13.20;;;7.70;93.70;;;;;;8342544;28;20448;-76
2021/03/15 05:47:15;;;;;;;38.50;18.53;;;7.80;93.90;;;;;;8408589;28;20222;-76
2021/03/15 05:51:43;;;;;;;31.40;15.63;;;7.90;94.10;;;;;;8375839;28;20444;-76
2021/03/15 05:56:04;;;;;;;30.47;14.90;;;7.90;94.10;;;;;;8398765;28;20446;-75
2021/03/15 06:00:29;;;;;;;30.93;15.30;;;8.00;94.00;;;;;;8408464;28;20493;-75
2021/03/15 06:05:14;;;;;;;30.70;14.37;;;8.10;93.80;;;;;;8389116;28;21098;-75
2021/03/15 06:09:20;;;;;;;28.07;13.70;;;8.10;93.60;;;;;;8392855;28;20457;-76
2021/03/15 06:13:27;;;;;;;22.03;11.10;;;8.10;93.50;;;;;;8390647;28;20445;-75
2021/03/15 06:17:36;;;;;;;21.17;10.33;;;8.00;93.30;;;;;;8374694;28;20445;-76
2021/03/15 06:21:37;;;;;;;14.80;9.30;;;8.00;93.00;;;;;;8374306;28;20878;-76
2021/03/15 06:25:38;;;;;;;20.03;10.30;;;8.00;92.90;;;;;;8368619;28;20869;-76
2021/03/15 06:29:38;;;;;;;19.20;8.80;;;8.00;92.80;;;;;;8347732;28;20444;-75
2021/03/15 06:33:43;;;;;;;16.57;8.70;;;7.90;92.70;;;;;;8358129;28;20194;-76
2021/03/15 06:37:53;;;;;;;15.80;8.63;;;7.90;92.80;;;;;;8388071;28;20179;-76
2021/03/15 06:41:58;;;;;;;12.20;7.70;;;7.80;92.90;;;;;;8385736;28;20848;-75
2021/03/15 06:46:04;;;;;;;18.20;9.80;;;7.70;93.00;;;;;;8381629;28;20472;-76
2021/03/15 06:50:12;;;;;;;14.80;9.77;;;7.70;93.30;;;;;;8386330;28;20614;-76
2021/03/15 06:54:28;;;;;;;16.50;8.93;;;7.70;93.40;;;;;;8360296;28;20453;-75
2021/03/15 06:58:32;;;;;;;17.33;9.73;;;7.70;93.40;;;;;;8353507;28;20452;-76
2021/03/15 07:02:32;;;;;;;18.73;9.37;;;7.70;93.50;;;;;;8374722;28;20460;-75
2021/03/15 07:06:41;;;;;;;18.10;8.47;;;7.80;93.40;;;;;;8373624;28;20470;-75
2021/03/15 07:10:45;;;;;;;16.17;7.97;;;7.90;93.30;;;;;;8373653;28;20523;-76
2021/03/15 07:14:53;;;;;;;18.20;10.70;;;7.90;93.00;;;;;;8384510;28;20561;-76
2021/03/15 07:18:55;;;;;;;17.33;10.27;;;7.90;93.00;;;;;;8375457;28;20440;-76
2021/03/15 07:22:59;;;;;;;20.23;9.37;;;7.90;93.10;;;;;;8396286;28;20432;-76
2021/03/15 07:27:02;;;;;;;19.37;10.33;;;7.90;93.00;;;;;;8380597;28;20618;-76
2021/03/15 07:31:25;;;;;;;20.47;11.40;;;7.90;93.10;;;;;;8367768;28;20198;-76
2021/03/15 07:35:38;;;;;;;16.23;10.10;;;8.00;93.30;;;;;;8396728;28;20436;-75
2021/03/15 07:39:51;;;;;;;18.50;9.67;;;8.00;93.40;;;;;;8377425;28;20437;-76
2021/03/15 07:43:54;;;;;;;18.63;10.50;;;8.10;93.30;;;;;;8377762;28;20460;-77
2021/03/15 07:48:03;;;;;;;14.23;9.00;;;8.20;93.40;;;;;;8343486;28;20515;-75
2021/03/15 07:52:10;;;;;;;18.23;8.60;;;8.40;93.20;;;;;;8380625;28;20453;-76
2021/03/15 07:56:17;;;;;;;13.17;8.60;;;8.60;92.90;;;;;;8381217;28;20798;-77
2021/03/15 08:00:19;;;;;;;13.17;7.90;;;8.70;92.30;;;;;;8369397;28;20467;-75
2021/03/15 08:04:20;;;;;;;15.03;8.00;;;8.70;92.00;;;;;;8380499;28;20465;-75
2021/03/15 08:08:23;;;;;;;14.30;8.83;;;8.80;92.00;;;;;;8343455;28;20786;-77
2021/03/15 08:12:34;;;;;;;13.77;7.67;;;8.80;91.60;;;;;;8376601;28;20470;-76
2021/03/15 08:16:37;;;;;;;15.67;7.30;;;8.80;91.60;;;;;;8371175;28;20458;-76
2021/03/15 08:20:52;;;;;;;12.30;7.80;;;8.80;91.80;;;;;;8389350;28;21020;-75
2021/03/15 08:25:08;;;;;;;10.40;7.50;;;8.90;91.50;;;;;;8391665;28;20484;-75
2021/03/15 08:29:12;;;;;;;15.07;6.87;;;9.30;91.00;;;;;;8383389;28;20435;-76
2021/03/15 08:33:14;;;;;;;18.50;8.80;;;9.50;90.30;;;;;;8366791;28;20538;-76
2021/03/15 08:37:37;;;;;;;9.20;5.50;;;9.60;88.60;;;;;;8376776;28;20445;-75
2021/03/15 08:41:40;;;;;;;12.73;7.87;;;9.60;88.00;;;;;;8380381;28;20545;-72
2021/03/15 08:45:59;;;;;;;11.80;6.93;;;9.60;88.00;;;;;;8358264;28;20466;-73
2021/03/15 08:50:35;;;;;;;8.97;5.47;;;9.70;88.90;;;;;;8367140;28;20803;-73
2021/03/15 08:54:37;;;;;;;7.10;4.70;;;10.30;88.20;;;;;;8380954;28;20452;-73
2021/03/15 08:58:43;;;;;;;9.30;6.40;;;11.00;83.80;;;;;;8367002;28;20458;-72
2021/03/15 09:02:49;;;;;;;10.87;7.10;;;11.10;81.80;;;;;;8391326;28;20971;-73
2021/03/15 09:06:50;;;;;;;9.50;5.30;;;11.00;82.60;;;;;;8353549;28;20472;-72
2021/03/15 09:10:51;;;;;;;9.80;5.90;;;11.10;82.40;;;;;;8388285;28;20493;-72
2021/03/15 09:14:57;;;;;;;9.57;5.60;;;11.10;82.80;;;;;;8366692;28;20460;-73
2021/03/15 09:19:00;;;;;;;8.43;5.50;;;10.90;81.10;;;;;;8368094;28;20212;-72
2021/03/15 09:23:32;;;;;;;9.33;5.77;;;10.90;80.50;;;;;;8364143;28;20463;-73
2021/03/15 09:27:39;;;;;;;11.10;5.30;;;11.20;81.10;;;;;;8399376;28;20515;-72
2021/03/15 09:32:01;;;;;;;10.87;6.00;;;12.00;76.60;;;;;;8389774;28;20433;-72
2021/03/15 09:36:03;;;;;;;10.53;6.47;;;11.80;76.20;;;;;;8359300;28;21343;-72
2021/03/15 09:40:10;;;;;;;10.10;5.87;;;11.30;76.90;;;;;;8345770;28;20448;-72
2021/03/15 09:44:12;;;;;;;13.30;5.67;;;10.80;77.90;;;;;;8358612;28;20525;-72
2021/03/15 09:48:21;;;;;;;6.07;5.33;;;10.40;79.20;;;;;;8345135;28;20454;-73
2021/03/15 09:52:25;;;;;;;8.50;6.03;;;10.10;81.00;;;;;;8376923;28;20444;-73
2021/03/15 09:56:26;;;;;;;12.83;6.60;;;10.00;81.40;;;;;;8384276;28;20457;-73
2021/03/15 10:00:27;;;;;;;8.33;6.20;;;9.90;82.10;;;;;;8364568;28;20200;-73
2021/03/15 10:04:39;;;;;;;16.50;8.50;;;9.80;82.20;;;;;;8390574;28;20564;-73
2021/03/15 10:08:49;;;;;;;14.27;8.93;;;9.70;83.70;;;;;;8387011;28;20491;-72
2021/03/15 10:13:08;;;;;;;15.07;8.30;;;9.70;84.00;;;;;;8387549;28;20444;-72
2021/03/15 10:17:09;;;;;;;15.33;8.90;;;9.80;83.90;;;;;;8371434;28;20538;-72
2021/03/15 10:21:11;;;;;;;20.23;6.40;;;9.80;84.30;;;;;;8369801;28;20446;-73
2021/03/15 10:25:14;;;;;;;9.50;6.93;;;9.90;83.30;;;;;;8353194;28;20319;-73
2021/03/15 10:29:15;;;;;;;10.20;5.83;;;10.10;83.30;;;;;;8363235;28;20836;-73
2021/03/15 10:33:21;;;;;;;16.60;5.93;;;10.30;82.10;;;;;;8369671;28;20519;-72
2021/03/15 10:37:30;;;;;;;10.03;5.40;;;10.50;81.40;;;;;;8365476;28;20459;-73
2021/03/15 10:41:32;;;;;;;5.60;4.20;;;10.80;81.70;;;;;;8366148;28;20478;-73
2021/03/15 10:45:34;;;;;;;9.50;4.40;;;11.40;78.50;;;;;;8317856;28;20470;-73
2021/03/15 10:49:37;;;;;;;6.47;5.03;;;12.10;76.30;;;;;;8346032;28;20461;-72
2021/03/15 10:53:49;;;;;;;14.10;5.20;;;12.60;74.40;;;;;;8387158;28;20453;-73
2021/03/15 10:58:10;;;;;;;14.40;4.77;;;12.70;72.10;;;;;;8366291;28;21220;-72
2021/03/15 11:02:19;;;;;;;6.90;3.73;;;12.10;72.40;;;;;;8368287;28;20469;-73
2021/03/15 11:06:28;;;;;;;7.77;4.10;;;11.90;76.40;;;;;;8379963;28;20482;-73
2021/03/15 11:10:31;;;;;;;6.63;4.17;;;12.70;76.60;;;;;;8359651;28;20582;-73
2021/03/15 11:14:32;;;;;;;7.40;5.33;;;13.60;71.90;;;;;;8360647;28;20476;-73
2021/03/15 11:18:35;;;;;;;5.20;4.27;;;14.00;69.60;;;;;;8356896;28;20452;-73
2021/03/15 11:22:50;;;;;;;8.53;4.63;;;13.60;71.10;;;;;;8356092;28;20199;-74
2021/03/15 11:26:59;;;;;;;6.23;4.50;;;12.70;72.60;;;;;;8362925;28;20533;-73
2021/03/15 11:31:01;;;;;;;6.37;3.40;;;12.50;75.80;;;;;;8373840;28;20453;-73
2021/03/15 11:35:07;;;;;;;6.63;3.77;;;12.70;71.30;;;;;;8368371;28;21013;-73
2021/03/15 11:39:10;;;;;;;9.93;4.60;;;13.20;70.60;;;;;;8365488;28;21089;-70
2021/03/15 11:43:20;;;;;;;10.20;4.80;;;13.40;67.10;;;;;;8378970;28;20454;-72
2021/03/15 11:47:20;;;;;;;4.10;2.33;;;13.20;68.90;;;;;;8361765;28;20557;-73
2021/03/15 11:51:28;;;;;;;4.00;2.83;;;12.50;68.70;;;;;;8370239;28;20985;-73
2021/03/15 11:55:30;;;;;;;2.90;2.37;;;11.80;72.20;;;;;;8379102;28;21095;-72
2021/03/15 11:59:37;;;;;;;1.80;1.13;;;11.20;75.60;;;;;;8393240;28;20238;-71
2021/03/15 12:03:38;;;;;;;1.10;1.00;;;10.50;78.70;;;;;;8365257;28;20473;-72
2021/03/15 12:07:43;;;;;;;5.57;1.80;;;10.00;81.20;;;;;;8355802;28;20484;-72
2021/03/15 12:11:44;;;;;;;2.60;1.33;;;9.70;83.80;;;;;;8366915;28;20534;-72
2021/03/15 12:15:46;;;;;;;4.40;1.60;;;9.90;83.30;;;;;;8367350;28;20444;-72
2021/03/15 12:19:52;;;;;;;1.57;1.47;;;10.20;83.60;;;;;;8389658;28;20676;-73
2021/03/15 12:23:59;;;;;;;3.27;1.87;;;10.30;83.10;;;;;;8370138;28;20563;-73
2021/03/15 12:28:03;;;;;;;5.27;2.13;;;10.60;82.40;;;;;;8369586;28;20448;-72
2021/03/15 12:32:16;;;;;;;4.73;2.70;;;10.50;81.10;;;;;;8382671;28;20439;-74
2021/03/15 12:36:16;;;;;;;4.03;1.70;;;10.40;80.60;;;;;;8341192;28;20492;-73
2021/03/15 12:40:23;;;;;;;2.67;2.00;;;10.80;80.70;;;;;;8365731;28;20467;-73
2021/03/15 12:44:24;;;;;;;3.60;2.10;;;11.30;78.70;;;;;;8364755;28;20480;-73
2021/03/15 12:48:30;;;;;;;3.23;1.97;;;11.60;77.80;;;;;;8351681;28;20449;-73
2021/03/15 12:52:33;;;;;;;3.10;2.73;;;12.10;76.90;;;;;;8396349;28;20452;-73
2021/03/15 12:56:40;;;;;;;12.83;3.50;;;12.30;75.60;;;;;;8376457;28;20473;-74
2021/03/15 13:00:44;;;;;;;7.90;3.00;;;12.40;74.50;;;;;;8381885;28;20535;-72
2021/03/15 13:04:46;;;;;;;3.23;2.03;;;12.40;74.40;;;;;;8333193;28;20487;-72
2021/03/15 13:08:49;;;;;;;5.03;2.90;;;12.40;73.50;;;;;;8365737;28;20473;-73
2021/03/15 13:12:52;;;;;;;7.03;1.73;;;12.40;73.10;;;;;;8360026;28;20453;-73
2021/03/15 13:16:52;;;;;;;2.53;2.20;;;12.50;73.40;;;;;;8373984;28;20440;-73
2021/03/15 13:20:53;;;;;;;6.20;2.23;;;12.60;72.40;;;;;;8334014;28;20458;-73
2021/03/15 13:25:00;;;;;;;5.10;2.53;;;12.80;72.80;;;;;;8375796;28;20223;-73
2021/03/15 13:29:05;;;;;;;5.90;2.77;;;13.10;72.30;;;;;;8388609;28;20242;-72
2021/03/15 13:33:11;;;;;;;2.70;1.83;;;13.10;70.80;;;;;;8402775;28;20464;-73
2021/03/15 13:37:14;;;;;;;7.17;3.10;;;13.00;71.90;;;;;;8383644;28;20531;-72
2021/03/15 13:41:20;;;;;;;4.80;2.30;;;12.40;70.70;;;;;;8362586;28;20485;-73
2021/03/15 13:45:21;;;;;;;3.63;2.30;;;11.10;76.00;;;;;;8373311;28;20506;-72
2021/03/15 13:49:22;;;;;;;2.20;1.80;;;10.40;79.40;;;;;;8373700;28;20455;-72
2021/03/15 13:53:25;;;;;;;6.67;3.60;;;10.20;82.20;;;;;;8363322;28;20201;-73
2021/03/15 13:57:27;;;;;;;12.03;3.70;;;10.50;83.90;;;;;;8373614;28;20295;-73
2021/03/15 14:01:28;;;;;;;4.67;2.30;;;10.90;81.70;;;;;;8373875;28;20459;-73
2021/03/15 14:05:29;;;;;;;4.93;1.93;;;11.20;81.70;;;;;;8336162;28;20476;-74
2021/03/15 14:09:35;;;;;;;5.13;1.80;;;11.40;80.80;;;;;;8384451;28;20310;-72
2021/03/15 14:13:37;;;;;;;3.13;2.63;;;11.70;80.20;;;;;;8405926;28;21098;-73
2021/03/15 14:17:47;;;;;;;3.10;2.10;;;12.00;79.90;;;;;;8386060;28;20443;-73
2021/03/15 14:21:53;;;;;;;4.60;1.77;;;12.20;77.40;;;;;;8367590;28;20854;-73
2021/03/15 14:25:54;;;;;;;7.77;2.10;;;12.30;75.50;;;;;;8347094;28;20551;-73
2021/03/15 14:29:56;;;;;;;7.50;2.17;;;12.30;73.50;;;;;;8356372;28;20915;-72
2021/03/15 14:34:00;;;;;;;5.87;2.80;;;12.10;73.90;;;;;;8366529;28;20453;-72
2021/03/15 14:38:03;;;;;;;9.00;2.30;;;11.90;74.80;;;;;;8352074;28;20546;-73
2021/03/15 14:42:10;;;;;;;6.73;2.37;;;11.60;74.70;;;;;;8385124;28;20529;-72
2021/03/15 14:46:13;;;;;;;11.40;2.20;;;11.70;75.40;;;;;;8385437;28;20469;-72
2021/03/15 14:50:16;;;;;;;3.83;2.33;;;12.30;72.10;;;;;;8369204;28;20455;-72
2021/03/15 14:54:20;;;;;;;5.80;1.70;;;12.80;67.40;;;;;;8365000;28;20964;-74
2021/03/15 14:58:21;;;;;;;5.53;1.67;;;13.20;64.10;;;;;;8361443;28;21379;-74
2021/03/15 15:02:22;;;;;;;4.43;1.87;;;13.30;62.80;;;;;;8360003;28;20941;-73
2021/03/15 15:06:32;;;;;;;1.57;1.30;;;13.40;61.30;;;;;;8378370;28;20484;-72
2021/03/15 15:10:34;;;;;;;12.40;2.17;;;13.40;59.30;;;;;;8366559;28;20473;-72
2021/03/15 15:14:35;;;;;;;7.03;1.53;;;13.40;59.70;;;;;;8381271;28;20466;-73
2021/03/15 15:18:44;;;;;;;1.80;1.33;;;13.40;59.00;;;;;;8372116;28;20484;-73
2021/03/15 15:22:45;;;;;;;2.50;1.90;;;13.40;60.30;;;;;;8351377;28;20499;-74
2021/03/15 15:26:49;;;;;;;2.43;1.63;;;13.20;60.10;;;;;;8384481;28;20481;-72
2021/03/15 15:30:55;;;;;;;3.87;1.77;;;12.70;61.40;;;;;;8392276;28;20437;-73
2021/03/15 15:35:02;;;;;;;3.87;2.00;;;12.30;62.80;;;;;;8376922;28;20514;-73
2021/03/15 15:39:06;;;;;;;9.63;1.37;;;11.90;64.60;;;;;;8371917;28;20474;-74
2021/03/15 15:43:15;;;;;;;4.97;2.07;;;11.60;65.80;;;;;;8377748;28;20485;-72
2021/03/15 15:47:19;;;;;;;2.20;1.90;;;11.20;68.50;;;;;;8356520;28;20479;-71
2021/03/15 15:51:23;;;;;;;3.13;2.83;;;11.10;71.10;;;;;;8367033;28;20949;-73
2021/03/15 15:55:26;;;;;;;3.73;3.37;;;11.00;71.70;;;;;;8354581;28;20458;-73
2021/03/15 15:59:27;;;;;;;9.27;2.47;;;11.00;73.00;;;;;;8369283;28;20460;-73
2021/03/15 16:03:29;;;;;;;3.93;1.70;;;11.00;73.20;;;;;;8362596;28;20871;-73
2021/03/15 16:07:33;;;;;;;6.47;2.10;;;10.90;72.80;;;;;;8403516;28;20225;-72
2021/03/15 16:11:33;;;;;;;2.80;1.97;;;10.80;74.30;;;;;;8401696;28;20476;-75
2021/03/15 16:15:34;;;;;;;11.97;2.33;;;10.70;74.00;;;;;;8371131;28;20448;-74
2021/03/15 16:19:36;;;;;;;17.07;3.50;;;10.60;71.80;;;;;;8343166;28;20283;-72
2021/03/15 16:23:36;;;;;;;11.13;2.30;;;10.50;74.20;;;;;;8369685;28;20548;-73
2021/03/15 16:27:43;;;;;;;10.70;2.20;;;10.40;74.00;;;;;;8351011;28;20483;-74
2021/03/15 16:31:47;;;;;;;8.93;3.70;;;10.40;73.90;;;;;;8366111;28;20534;-72
2021/03/15 16:35:48;;;;;;;14.63;2.00;;;10.30;73.90;;;;;;8360829;28;20454;-71
2021/03/15 16:39:52;;;;;;;9.50;2.30;;;10.10;77.40;;;;;;8354458;28;20441;-72
2021/03/15 16:43:56;;;;;;;8.87;2.00;;;9.90;79.50;;;;;;8371681;28;20195;-74
2021/03/15 16:48:04;;;;;;;8.13;1.90;;;9.70;80.00;;;;;;8370487;28;20479;-75
2021/03/15 16:52:05;;;;;;;5.13;2.40;;;9.50;80.80;;;;;;8385354;28;20533;-74
2021/03/15 16:56:10;;;;;;;14.07;2.80;;;9.40;82.00;;;;;;8382635;28;21053;-76
2021/03/15 17:00:17;;;;;;;17.45;3.00;;;9.30;82.90;;;;;;8358141;28;20523;-76
2021/03/15 17:04:18;;;;;;;5.33;2.30;;;9.30;83.80;;;;;;8380530;28;20205;-73
2021/03/15 17:08:23;;;;;;;2.83;1.43;;;9.30;84.80;;;;;;8379473;28;21137;-77
2021/03/15 17:12:29;;;;;;;4.47;1.60;;;9.00;84.90;;;;;;8376097;28;20187;-75
2021/03/15 17:16:30;;;;;;;9.80;2.57;;;8.40;87.10;;;;;;8405071;28;20531;-76
2021/03/15 17:20:32;;;;;;;4.50;2.00;;;7.90;88.30;;;;;;8382966;28;20440;-74
2021/03/15 17:24:34;;;;;;;3.13;2.27;;;7.70;90.10;;;;;;8386217;28;20553;-75
2021/03/15 17:28:35;;;;;;;8.13;1.80;;;7.60;90.90;;;;;;8367457;28;20443;-74
2021/03/15 17:32:40;;;;;;;4.23;3.60;;;7.50;91.50;;;;;;8382390;28;20449;-76
2021/03/15 17:36:47;;;;;;;5.40;2.37;;;7.50;91.60;;;;;;8365120;28;20474;-75
2021/03/15 17:40:51;;;;;;;2.60;2.20;;;7.50;91.80;;;;;;8374354;28;20548;-75
2021/03/15 17:45:06;;;;;;;10.40;2.30;;;7.40;91.80;;;;;;8383283;28;21474;-77
2021/03/15 17:49:38;;;;;;;7.27;2.90;;;7.40;92.00;;;;;;8360868;28;20436;-76
2021/03/15 17:53:40;;;;;;;10.87;4.07;;;7.40;92.10;;;;;;8367789;28;20519;-77
2021/03/15 17:57:44;;;;;;;12.40;3.03;;;7.50;92.30;;;;;;8356899;28;20445;-76
2021/03/15 18:01:45;;;;;;;7.93;2.87;;;7.60;92.40;;;;;;8373989;28;20480;-77
2021/03/15 18:05:50;;;;;;;2.57;2.30;;;7.70;92.50;;;;;;8392331;28;20511;-77
2021/03/15 18:09:55;;;;;;;9.10;2.20;;;7.70;92.10;;;;;;8373909;28;20519;-76
2021/03/15 18:13:59;;;;;;;11.40;3.80;;;7.60;91.80;;;;;;8364583;28;21079;-76
2021/03/15 18:18:00;;;;;;;11.30;4.40;;;7.60;92.20;;;;;;8372861;28;20452;-75
2021/03/15 18:22:02;;;;;;;7.27;3.57;;;7.50;92.40;;;;;;8371805;28;20482;-75
2021/03/15 18:26:04;;;;;;;6.90;3.23;;;7.60;92.50;;;;;;8376916;28;20218;-75
2021/03/15 18:30:08;;;;;;;4.13;2.50;;;7.60;92.70;;;;;;8366398;28;20441;-75
2021/03/15 18:34:16;;;;;;;19.13;3.40;;;7.70;92.70;;;;;;8404283;28;20433;-76
2021/03/15 18:38:22;;;;;;;6.03;2.87;;;7.80;92.50;;;;;;8411117;28;20444;-76
2021/03/15 18:42:28;;;;;;;10.57;5.63;;;7.70;92.00;;;;;;8382176;28;21137;-76
2021/03/15 18:46:34;;;;;;;14.07;4.30;;;7.70;91.80;;;;;;8383283;28;20464;-75
2021/03/15 18:50:36;;;;;;;11.70;3.80;;;7.60;91.80;;;;;;8367905;28;20446;-77
2021/03/15 18:54:36;;;;;;;13.90;3.43;;;7.50;92.10;;;;;;8361283;28;21394;-74
2021/03/15 18:58:40;;;;;;;7.30;3.00;;;7.50;92.30;;;;;;8374267;28;20449;-76
2021/03/15 19:02:41;;;;;;;13.17;3.67;;;7.50;91.90;;;;;;8353037;28;20218;-76
2021/03/15 19:06:48;;;;;;;14.13;4.10;;;7.50;91.80;;;;;;8390315;28;20591;-75
2021/03/15 19:10:51;;;;;;;8.97;4.13;;;7.50;91.70;;;;;;8337286;28;20806;-73
2021/03/15 19:14:52;;;;;;;10.90;3.67;;;7.40;91.90;;;;;;8373355;28;20452;-75
2021/03/15 19:18:57;;;;;;;8.30;3.50;;;7.50;91.80;;;;;;8373291;28;20458;-74
2021/03/15 19:23:06;;;;;;;8.00;5.00;;;7.50;91.90;;;;;;8390358;28;20477;-74
2021/03/15 19:27:07;;;;;;;14.80;5.53;;;7.50;91.70;;;;;;8375526;28;20468;-74
2021/03/15 19:31:21;;;;;;;13.77;4.47;;;7.40;91.90;;;;;;8388653;28;20439;-75
2021/03/15 19:35:29;;;;;;;11.73;5.03;;;7.50;91.80;;;;;;8379191;28;20999;-74
2021/03/15 19:39:33;;;;;;;12.13;4.07;;;7.50;91.70;;;;;;8374400;28;20479;-74
2021/03/15 19:43:37;;;;;;;9.90;3.63;;;7.50;92.00;;;;;;8384559;28;20473;-74
2021/03/15 19:47:43;;;;;;;9.50;4.10;;;7.50;91.80;;;;;;8388793;28;20477;-75
2021/03/15 19:51:50;;;;;;;7.17;4.47;;;7.50;91.60;;;;;;8388711;28;20452;-74
2021/03/15 19:55:52;;;;;;;15.70;4.20;;;7.50;91.60;;;;;;8369852;28;20543;-74
2021/03/15 19:59:53;;;;;;;19.83;6.70;;;7.50;91.50;;;;;;8356226;28;20613;-75
2021/03/15 20:03:55;;;;;;;16.17;5.23;;;7.60;91.50;;;;;;8363702;28;21009;-76
2021/03/15 20:07:57;;;;;;;14.30;6.47;;;7.60;91.70;;;;;;8362227;28;20707;-76
2021/03/15 20:11:59;;;;;;;13.23;6.40;;;7.50;92.10;;;;;;8367230;28;20452;-77
2021/03/15 20:16:08;;;;;;;17.57;5.53;;;7.50;92.40;;;;;;8347180;28;20462;-77
2021/03/15 20:20:21;;;;;;;13.83;4.80;;;7.50;92.70;;;;;;8376195;28;20929;-76
2021/03/15 20:24:25;;;;;;;18.83;6.80;;;7.40;92.80;;;;;;8391295;28;20491;-77
2021/03/15 20:28:26;;;;;;;19.73;6.00;;;7.30;92.70;;;;;;8374911;28;20525;-79
2021/03/15 20:32:30;;;;;;;21.23;6.37;;;7.20;92.80;;;;;;8396195;28;20469;-77
2021/03/15 20:36:37;;;;;;;27.60;7.33;;;7.20;93.10;;;;;;8395945;28;20540;-76
2021/03/15 20:40:58;;;;;;;18.80;6.83;;;7.20;93.10;;;;;;8387727;28;20441;-76
2021/03/15 20:45:01;;;;;;;20.53;6.20;;;7.20;93.10;;;;;;8363237;28;20465;-75
2021/03/15 20:49:03;;;;;;;23.63;6.67;;;7.20;92.90;;;;;;8377688;28;20575;-75
2021/03/15 20:53:09;;;;;;;18.73;6.60;;;7.20;93.00;;;;;;8371063;28;20514;-77
2021/03/15 20:57:19;;;;;;;21.03;6.60;;;7.20;93.10;;;;;;8391448;28;20462;-76
2021/03/15 21:01:20;;;;;;;26.80;6.00;;;7.20;92.90;;;;;;8373678;28;20464;-75
2021/03/15 21:05:23;;;;;;;15.60;6.97;;;7.30;92.60;;;;;;8379027;28;20492;-77
2021/03/15 21:09:28;;;;;;;17.27;6.50;;;7.40;92.60;;;;;;8372702;28;20203;-76
2021/03/15 21:13:32;;;;;;;13.90;5.70;;;7.40;92.50;;;;;;8395220;28;20488;-76
2021/03/15 21:17:34;;;;;;;20.40;6.37;;;7.30;92.50;;;;;;8363099;28;20453;-75
2021/03/15 21:21:35;;;;;;;15.80;7.30;;;7.30;92.60;;;;;;8359439;28;20206;-75